sensor_id;sensor_type;location;lat;lon;timestamp;P1;durP1;ratioP1;P2;durP2;ratioP2
56991;SDS011;42885;49.754;18.636;2023-04-01T00:01:46;2.52;;;1.40;;
56991;SDS011;42885;49.754;18.636;2023-04-01T00:04:17;5.90;;;1.47;;
56991;SDS011;42885;49.754;18.636;2023-04-01T00:06:49;3.67;;;1.37;;
56991;SDS011;42885;49.754;18.636;2023-04-01T00:09:20;2.95;;;1.20;;
56991;SDS011;42885;49.754;18.636;2023-04-01T00:11:51;3.80;;;1.07;;
56991;SDS011;42885;49.754;18.636;2023-04-01T00:14:22;3.22;;;1.40;;
56991;SDS011;42885;49.754;18.636;2023-04-01T00:16:53;4.20;;;1.17;;
56991;SDS011;42885;49.754;18.636;2023-04-01T00:19:24;2.87;;;1.45;;
56991;SDS011;42885;49.754;18.636;2023-04-01T00:21:55;5.95;;;3.30;;
56991;SDS011;42885;49.754;18.636;2023-04-01T00:24:26;3.08;;;1.00;;
56991;SDS011;42885;49.754;18.636;2023-04-01T00:26:57;3.20;;;1.17;;
56991;SDS011;42885;49.754;18.636;2023-04-01T00:29:27;4.97;;;1.02;;
56991;SDS011;42885;49.754;18.636;2023-04-01T00:31:59;2.55;;;1.15;;
56991;SDS011;42885;49.754;18.636;2023-04-01T00:34:30;2.35;;;1.20;;
56991;SDS011;42885;49.754;18.636;2023-04-01T00:37:01;3.87;;;1.40;;
56991;SDS011;42885;49.754;18.636;2023-04-01T00:39:32;5.67;;;1.25;;
56991;SDS011;42885;49.754;18.636;2023-04-01T00:42:04;4.73;;;1.63;;
56991;SDS011;42885;49.754;18.636;2023-04-01T00:44:36;2.90;;;1.47;;
56991;SDS011;42885;49.754;18.636;2023-04-01T00:47:08;4.97;;;1.12;;
56991;SDS011;42885;49.754;18.636;2023-04-01T00:49:40;2.02;;;1.30;;
56991;SDS011;42885;49.754;18.636;2023-04-01T00:52:14;3.80;;;1.20;;
56991;SDS011;42885;49.754;18.636;2023-04-01T00:54:47;3.17;;;1.13;;
56991;SDS011;42885;49.754;18.636;2023-04-01T00:59:57;4.70;;;1.40;;
56991;SDS011;42885;49.754;18.636;2023-04-01T01:02:28;4.58;;;1.55;;
56991;SDS011;42885;49.754;18.636;2023-04-01T01:05:01;2.97;;;1.30;;
56991;SDS011;42885;49.754;18.636;2023-04-01T01:07:35;2.35;;;1.32;;
56991;SDS011;42885;49.754;18.636;2023-04-01T01:15:34;4.08;;;1.30;;
56991;SDS011;42885;49.754;18.636;2023-04-01T01:18:10;2.75;;;1.10;;
56991;SDS011;42885;49.754;18.636;2023-04-01T01:27:06;2.80;;;1.22;;
56991;SDS011;42885;49.754;18.636;2023-04-01T01:37:56;3.80;;;1.40;;
56991;SDS011;42885;49.754;18.636;2023-04-01T01:40:32;3.10;;;1.30;;
56991;SDS011;42885;49.754;18.636;2023-04-01T01:43:08;3.37;;;1.30;;
56991;SDS011;42885;49.754;18.636;2023-04-01T01:45:41;2.98;;;1.47;;
56991;SDS011;42885;49.754;18.636;2023-04-01T01:48:14;2.77;;;1.30;;
56991;SDS011;42885;49.754;18.636;2023-04-01T01:50:46;4.80;;;1.55;;
56991;SDS011;42885;49.754;18.636;2023-04-01T01:53:19;1.97;;;1.10;;
56991;SDS011;42885;49.754;18.636;2023-04-01T01:55:50;2.93;;;1.30;;
56991;SDS011;42885;49.754;18.636;2023-04-01T01:58:33;6.33;;;1.60;;
56991;SDS011;42885;49.754;18.636;2023-04-01T02:01:19;5.65;;;1.55;;
56991;SDS011;42885;49.754;18.636;2023-04-01T02:03:48;1.70;;;0.97;;
56991;SDS011;42885;49.754;18.636;2023-04-01T02:06:22;3.65;;;1.40;;
56991;SDS011;42885;49.754;18.636;2023-04-01T02:09:00;3.40;;;1.35;;
56991;SDS011;42885;49.754;18.636;2023-04-01T02:11:37;3.50;;;1.10;;
56991;SDS011;42885;49.754;18.636;2023-04-01T02:14:13;4.12;;;1.30;;
56991;SDS011;42885;49.754;18.636;2023-04-01T02:17:05;5.42;;;1.15;;
56991;SDS011;42885;49.754;18.636;2023-04-01T02:19:40;4.62;;;1.30;;
56991;SDS011;42885;49.754;18.636;2023-04-01T02:22:26;3.25;;;1.30;;
56991;SDS011;42885;49.754;18.636;2023-04-01T02:25:04;2.85;;;1.30;;
56991;SDS011;42885;49.754;18.636;2023-04-01T02:27:36;2.98;;;1.02;;
56991;SDS011;42885;49.754;18.636;2023-04-01T02:30:08;3.47;;;1.55;;
56991;SDS011;42885;49.754;18.636;2023-04-01T02:32:40;4.25;;;1.40;;
56991;SDS011;42885;49.754;18.636;2023-04-01T02:35:12;4.17;;;1.37;;
56991;SDS011;42885;49.754;18.636;2023-04-01T02:37:45;4.58;;;1.22;;
56991;SDS011;42885;49.754;18.636;2023-04-01T02:40:18;8.10;;;1.67;;
56991;SDS011;42885;49.754;18.636;2023-04-01T02:42:49;4.77;;;1.13;;
56991;SDS011;42885;49.754;18.636;2023-04-01T02:45:21;5.22;;;1.40;;
56991;SDS011;42885;49.754;18.636;2023-04-01T02:47:52;2.40;;;1.10;;
56991;SDS011;42885;49.754;18.636;2023-04-01T02:50:23;3.90;;;1.30;;
56991;SDS011;42885;49.754;18.636;2023-04-01T02:52:54;5.20;;;1.60;;
56991;SDS011;42885;49.754;18.636;2023-04-01T02:55:25;5.90;;;1.42;;
56991;SDS011;42885;49.754;18.636;2023-04-01T02:57:56;5.42;;;1.32;;
56991;SDS011;42885;49.754;18.636;2023-04-01T03:00:27;5.35;;;1.15;;
56991;SDS011;42885;49.754;18.636;2023-04-01T03:02:58;3.00;;;1.32;;
56991;SDS011;42885;49.754;18.636;2023-04-01T03:05:29;3.50;;;1.02;;
56991;SDS011;42885;49.754;18.636;2023-04-01T03:08:00;4.58;;;1.30;;
56991;SDS011;42885;49.754;18.636;2023-04-01T03:10:31;3.92;;;1.40;;
56991;SDS011;42885;49.754;18.636;2023-04-01T03:13:02;2.27;;;1.20;;
56991;SDS011;42885;49.754;18.636;2023-04-01T03:15:34;2.58;;;1.10;;
56991;SDS011;42885;49.754;18.636;2023-04-01T03:18:05;2.00;;;1.12;;
56991;SDS011;42885;49.754;18.636;2023-04-01T03:20:35;5.80;;;1.30;;
56991;SDS011;42885;49.754;18.636;2023-04-01T03:23:07;4.65;;;1.45;;
56991;SDS011;42885;49.754;18.636;2023-04-01T03:25:38;3.60;;;1.50;;
56991;SDS011;42885;49.754;18.636;2023-04-01T03:28:09;4.28;;;1.30;;
56991;SDS011;42885;49.754;18.636;2023-04-01T03:30:41;4.80;;;1.40;;
56991;SDS011;42885;49.754;18.636;2023-04-01T03:33:12;3.08;;;1.30;;
56991;SDS011;42885;49.754;18.636;2023-04-01T03:35:43;4.03;;;1.42;;
56991;SDS011;42885;49.754;18.636;2023-04-01T03:38:15;4.00;;;1.40;;
56991;SDS011;42885;49.754;18.636;2023-04-01T03:40:46;4.12;;;1.92;;
56991;SDS011;42885;49.754;18.636;2023-04-01T03:43:17;3.87;;;1.10;;
56991;SDS011;42885;49.754;18.636;2023-04-01T03:45:49;4.50;;;1.40;;
56991;SDS011;42885;49.754;18.636;2023-04-01T03:48:21;5.12;;;1.57;;
56991;SDS011;42885;49.754;18.636;2023-04-01T03:50:52;2.58;;;1.27;;
56991;SDS011;42885;49.754;18.636;2023-04-01T03:53:23;3.72;;;1.42;;
56991;SDS011;42885;49.754;18.636;2023-04-01T03:55:55;2.80;;;1.40;;
56991;SDS011;42885;49.754;18.636;2023-04-01T03:58:26;4.30;;;1.85;;
56991;SDS011;42885;49.754;18.636;2023-04-01T04:00:58;4.87;;;1.70;;
56991;SDS011;42885;49.754;18.636;2023-04-01T04:03:29;2.65;;;1.40;;
56991;SDS011;42885;49.754;18.636;2023-04-01T04:06:02;5.25;;;1.42;;
56991;SDS011;42885;49.754;18.636;2023-04-01T04:08:33;4.12;;;1.62;;
56991;SDS011;42885;49.754;18.636;2023-04-01T04:11:07;6.95;;;1.50;;
56991;SDS011;42885;49.754;18.636;2023-04-01T04:13:40;4.83;;;1.45;;
56991;SDS011;42885;49.754;18.636;2023-04-01T04:16:12;3.30;;;1.10;;
56991;SDS011;42885;49.754;18.636;2023-04-01T04:18:46;5.42;;;1.57;;
56991;SDS011;42885;49.754;18.636;2023-04-01T04:21:17;3.20;;;1.40;;
56991;SDS011;42885;49.754;18.636;2023-04-01T04:23:48;6.17;;;1.67;;
56991;SDS011;42885;49.754;18.636;2023-04-01T04:26:20;3.60;;;1.20;;
56991;SDS011;42885;49.754;18.636;2023-04-01T04:28:56;3.98;;;1.40;;
56991;SDS011;42885;49.754;18.636;2023-04-01T04:31:27;3.67;;;2.00;;
56991;SDS011;42885;49.754;18.636;2023-04-01T04:33:59;4.12;;;1.80;;
56991;SDS011;42885;49.754;18.636;2023-04-01T04:36:32;4.20;;;1.80;;
56991;SDS011;42885;49.754;18.636;2023-04-01T04:39:03;3.22;;;1.72;;
56991;SDS011;42885;49.754;18.636;2023-04-01T04:41:36;5.72;;;1.75;;
56991;SDS011;42885;49.754;18.636;2023-04-01T04:44:09;3.62;;;1.75;;
56991;SDS011;42885;49.754;18.636;2023-04-01T04:46:40;3.83;;;1.60;;
56991;SDS011;42885;49.754;18.636;2023-04-01T04:49:13;3.67;;;1.57;;
56991;SDS011;42885;49.754;18.636;2023-04-01T04:51:44;5.63;;;1.70;;
56991;SDS011;42885;49.754;18.636;2023-04-01T04:54:17;3.35;;;1.60;;
56991;SDS011;42885;49.754;18.636;2023-04-01T04:56:52;4.10;;;1.50;;
56991;SDS011;42885;49.754;18.636;2023-04-01T04:59:26;3.40;;;1.72;;
56991;SDS011;42885;49.754;18.636;2023-04-01T05:02:04;6.90;;;1.57;;
56991;SDS011;42885;49.754;18.636;2023-04-01T05:04:36;4.08;;;1.70;;
56991;SDS011;42885;49.754;18.636;2023-04-01T05:07:08;3.37;;;1.37;;
56991;SDS011;42885;49.754;18.636;2023-04-01T05:09:39;3.02;;;1.22;;
56991;SDS011;42885;49.754;18.636;2023-04-01T05:12:11;5.03;;;1.65;;
56991;SDS011;42885;49.754;18.636;2023-04-01T05:14:44;5.10;;;1.65;;
56991;SDS011;42885;49.754;18.636;2023-04-01T05:17:15;4.30;;;1.52;;
56991;SDS011;42885;49.754;18.636;2023-04-01T05:19:46;4.10;;;1.50;;
56991;SDS011;42885;49.754;18.636;2023-04-01T05:22:17;3.20;;;1.40;;
56991;SDS011;42885;49.754;18.636;2023-04-01T05:24:49;4.42;;;1.60;;
56991;SDS011;42885;49.754;18.636;2023-04-01T05:27:20;8.78;;;1.92;;
56991;SDS011;42885;49.754;18.636;2023-04-01T05:29:51;4.12;;;1.60;;
56991;SDS011;42885;49.754;18.636;2023-04-01T05:32:33;5.33;;;1.52;;
56991;SDS011;42885;49.754;18.636;2023-04-01T05:35:03;2.95;;;1.07;;
56991;SDS011;42885;49.754;18.636;2023-04-01T05:37:35;4.87;;;1.47;;
56991;SDS011;42885;49.754;18.636;2023-04-01T05:40:07;3.17;;;1.30;;
56991;SDS011;42885;49.754;18.636;2023-04-01T05:42:38;5.40;;;1.92;;
56991;SDS011;42885;49.754;18.636;2023-04-01T05:45:09;3.90;;;1.47;;
56991;SDS011;42885;49.754;18.636;2023-04-01T05:47:58;3.58;;;1.35;;
56991;SDS011;42885;49.754;18.636;2023-04-01T05:50:31;6.15;;;1.67;;
56991;SDS011;42885;49.754;18.636;2023-04-01T05:53:03;3.67;;;1.37;;
56991;SDS011;42885;49.754;18.636;2023-04-01T05:55:37;2.67;;;1.10;;
56991;SDS011;42885;49.754;18.636;2023-04-01T05:58:08;1.95;;;1.10;;
56991;SDS011;42885;49.754;18.636;2023-04-01T06:00:40;2.52;;;1.20;;
56991;SDS011;42885;49.754;18.636;2023-04-01T06:03:13;3.17;;;1.12;;
56991;SDS011;42885;49.754;18.636;2023-04-01T06:05:44;4.12;;;1.35;;
56991;SDS011;42885;49.754;18.636;2023-04-01T06:08:16;4.33;;;1.32;;
56991;SDS011;42885;49.754;18.636;2023-04-01T06:10:50;6.03;;;1.13;;
56991;SDS011;42885;49.754;18.636;2023-04-01T06:16:34;3.47;;;1.30;;
56991;SDS011;42885;49.754;18.636;2023-04-01T06:19:31;3.40;;;1.02;;
56991;SDS011;42885;49.754;18.636;2023-04-01T06:28:05;3.53;;;1.50;;
56991;SDS011;42885;49.754;18.636;2023-04-01T06:33:33;3.52;;;1.27;;
56991;SDS011;42885;49.754;18.636;2023-04-01T06:38:41;2.17;;;1.00;;
56991;SDS011;42885;49.754;18.636;2023-04-01T06:41:21;3.40;;;1.20;;
56991;SDS011;42885;49.754;18.636;2023-04-01T06:47:07;2.27;;;1.00;;
56991;SDS011;42885;49.754;18.636;2023-04-01T06:53:31;6.08;;;1.42;;
56991;SDS011;42885;49.754;18.636;2023-04-01T06:56:22;4.00;;;1.15;;
56991;SDS011;42885;49.754;18.636;2023-04-01T06:59:02;2.62;;;1.10;;
56991;SDS011;42885;49.754;18.636;2023-04-01T07:01:41;1.98;;;1.12;;
56991;SDS011;42885;49.754;18.636;2023-04-01T07:04:19;2.50;;;0.98;;
56991;SDS011;42885;49.754;18.636;2023-04-01T07:09:32;3.45;;;1.40;;
56991;SDS011;42885;49.754;18.636;2023-04-01T07:15:16;1.52;;;1.00;;
56991;SDS011;42885;49.754;18.636;2023-04-01T07:17:49;3.60;;;1.50;;
56991;SDS011;42885;49.754;18.636;2023-04-01T07:20:30;2.45;;;1.10;;
56991;SDS011;42885;49.754;18.636;2023-04-01T07:23:20;1.72;;;1.00;;
56991;SDS011;42885;49.754;18.636;2023-04-01T07:26:00;2.42;;;0.98;;
56991;SDS011;42885;49.754;18.636;2023-04-01T07:28:34;2.52;;;1.02;;
56991;SDS011;42885;49.754;18.636;2023-04-01T07:31:18;1.57;;;0.93;;
56991;SDS011;42885;49.754;18.636;2023-04-01T07:33:58;3.35;;;0.93;;
56991;SDS011;42885;49.754;18.636;2023-04-01T07:36:36;2.87;;;1.02;;
56991;SDS011;42885;49.754;18.636;2023-04-01T07:45:36;3.00;;;1.40;;
56991;SDS011;42885;49.754;18.636;2023-04-01T07:51:00;2.90;;;1.15;;
56991;SDS011;42885;49.754;18.636;2023-04-01T07:53:49;4.17;;;1.00;;
56991;SDS011;42885;49.754;18.636;2023-04-01T07:56:43;1.70;;;1.10;;
56991;SDS011;42885;49.754;18.636;2023-04-01T08:05:22;2.80;;;1.00;;
56991;SDS011;42885;49.754;18.636;2023-04-01T08:08:06;3.87;;;1.30;;
56991;SDS011;42885;49.754;18.636;2023-04-01T08:11:08;2.80;;;1.02;;
56991;SDS011;42885;49.754;18.636;2023-04-01T08:14:21;2.00;;;0.90;;
56991;SDS011;42885;49.754;18.636;2023-04-01T08:22:57;6.75;;;1.40;;
56991;SDS011;42885;49.754;18.636;2023-04-01T08:25:44;4.13;;;1.40;;
56991;SDS011;42885;49.754;18.636;2023-04-01T08:29:00;1.70;;;1.02;;
56991;SDS011;42885;49.754;18.636;2023-04-01T08:31:57;3.08;;;1.15;;
56991;SDS011;42885;49.754;18.636;2023-04-01T08:35:02;3.10;;;1.37;;
56991;SDS011;42885;49.754;18.636;2023-04-01T08:37:15;2.65;;;1.50;;
56991;SDS011;42885;49.754;18.636;2023-04-01T08:39:57;3.93;;;1.17;;
56991;SDS011;42885;49.754;18.636;2023-04-01T08:42:31;1.82;;;1.40;;
56991;SDS011;42885;49.754;18.636;2023-04-01T08:53:50;2.37;;;1.17;;
56991;SDS011;42885;49.754;18.636;2023-04-01T08:59:22;3.15;;;1.37;;
56991;SDS011;42885;49.754;18.636;2023-04-01T09:07:54;3.55;;;1.52;;
56991;SDS011;42885;49.754;18.636;2023-04-01T09:10:59;3.67;;;1.77;;
56991;SDS011;42885;49.754;18.636;2023-04-01T09:17:00;2.25;;;1.52;;
56991;SDS011;42885;49.754;18.636;2023-04-01T09:36:43;2.70;;;1.80;;
56991;SDS011;42885;49.754;18.636;2023-04-01T09:39:35;3.37;;;1.70;;
56991;SDS011;42885;49.754;18.636;2023-04-01T09:42:43;3.55;;;2.00;;
56991;SDS011;42885;49.754;18.636;2023-04-01T09:51:24;26.42;;;18.50;;
56991;SDS011;42885;49.754;18.636;2023-04-01T09:59:59;1.82;;;1.17;;
56991;SDS011;42885;49.754;18.636;2023-04-01T10:05:55;5.20;;;1.50;;
56991;SDS011;42885;49.754;18.636;2023-04-01T10:12:08;2.87;;;1.65;;
56991;SDS011;42885;49.754;18.636;2023-04-01T10:23:59;3.10;;;1.75;;
56991;SDS011;42885;49.754;18.636;2023-04-01T10:29:46;3.58;;;1.60;;
56991;SDS011;42885;49.754;18.636;2023-04-01T10:52:49;6.60;;;3.62;;
56991;SDS011;42885;49.754;18.636;2023-04-01T11:02:08;4.65;;;2.75;;
56991;SDS011;42885;49.754;18.636;2023-04-01T11:05:28;4.10;;;2.87;;
56991;SDS011;42885;49.754;18.636;2023-04-01T11:11:15;60.73;;;53.75;;
56991;SDS011;42885;49.754;18.636;2023-04-01T11:25:49;5.20;;;2.27;;
56991;SDS011;42885;49.754;18.636;2023-04-01T11:39:59;7.05;;;2.40;;
56991;SDS011;42885;49.754;18.636;2023-04-01T11:42:42;2.80;;;1.80;;
56991;SDS011;42885;49.754;18.636;2023-04-01T11:51:18;3.25;;;1.85;;
56991;SDS011;42885;49.754;18.636;2023-04-01T11:53:59;4.27;;;2.00;;
56991;SDS011;42885;49.754;18.636;2023-04-01T11:56:52;4.40;;;2.10;;
56991;SDS011;42885;49.754;18.636;2023-04-01T12:02:25;2.87;;;1.77;;
56991;SDS011;42885;49.754;18.636;2023-04-01T12:13:27;2.70;;;1.80;;
56991;SDS011;42885;49.754;18.636;2023-04-01T12:21:55;5.73;;;1.37;;
56991;SDS011;42885;49.754;18.636;2023-04-01T12:24:44;3.26;;;1.42;;
56991;SDS011;42885;49.754;18.636;2023-04-01T12:27:23;3.08;;;1.40;;
56991;SDS011;42885;49.754;18.636;2023-04-01T12:30:02;3.25;;;1.30;;
56991;SDS011;42885;49.754;18.636;2023-04-01T12:33:08;2.37;;;1.30;;
56991;SDS011;42885;49.754;18.636;2023-04-01T12:35:55;3.20;;;1.93;;
56991;SDS011;42885;49.754;18.636;2023-04-01T12:38:46;2.27;;;1.47;;
56991;SDS011;42885;49.754;18.636;2023-04-01T12:52:30;5.50;;;2.20;;
56991;SDS011;42885;49.754;18.636;2023-04-01T12:58:03;5.43;;;2.30;;
56991;SDS011;42885;49.754;18.636;2023-04-01T13:20:54;2.67;;;1.50;;
56991;SDS011;42885;49.754;18.636;2023-04-01T13:23:47;4.27;;;1.73;;
56991;SDS011;42885;49.754;18.636;2023-04-01T13:26:27;3.25;;;1.40;;
56991;SDS011;42885;49.754;18.636;2023-04-01T13:29:08;2.72;;;1.30;;
56991;SDS011;42885;49.754;18.636;2023-04-01T13:31:50;2.45;;;1.12;;
56991;SDS011;42885;49.754;18.636;2023-04-01T13:54:18;5.10;;;1.50;;
56991;SDS011;42885;49.754;18.636;2023-04-01T14:08:42;3.80;;;1.32;;
56991;SDS011;42885;49.754;18.636;2023-04-01T14:20:13;2.92;;;1.95;;
56991;SDS011;42885;49.754;18.636;2023-04-01T14:22:58;3.85;;;2.90;;
56991;SDS011;42885;49.754;18.636;2023-04-01T14:45:20;2.62;;;1.47;;
56991;SDS011;42885;49.754;18.636;2023-04-01T14:48:07;2.83;;;1.50;;
56991;SDS011;42885;49.754;18.636;2023-04-01T14:50:55;2.72;;;1.30;;
56991;SDS011;42885;49.754;18.636;2023-04-01T14:53:33;2.80;;;1.40;;
56991;SDS011;42885;49.754;18.636;2023-04-01T14:56:08;2.73;;;1.50;;
56991;SDS011;42885;49.754;18.636;2023-04-01T14:58:42;2.57;;;1.57;;
56991;SDS011;42885;49.754;18.636;2023-04-01T15:09:59;3.15;;;1.60;;
56991;SDS011;42885;49.754;18.636;2023-04-01T15:12:52;2.50;;;1.45;;
56991;SDS011;42885;49.754;18.636;2023-04-01T15:18:34;1.30;;;1.00;;
56991;SDS011;42885;49.754;18.636;2023-04-01T15:21:27;3.27;;;1.10;;
56991;SDS011;42885;49.754;18.636;2023-04-01T15:27:05;1.65;;;1.00;;
56991;SDS011;42885;49.754;18.636;2023-04-01T15:29:56;2.00;;;1.00;;
56991;SDS011;42885;49.754;18.636;2023-04-01T15:32:38;4.93;;;1.50;;
56991;SDS011;42885;49.754;18.636;2023-04-01T15:41:11;1.62;;;1.17;;
56991;SDS011;42885;49.754;18.636;2023-04-01T15:43:55;1.40;;;1.07;;
56991;SDS011;42885;49.754;18.636;2023-04-01T15:46:36;2.40;;;1.10;;
56991;SDS011;42885;49.754;18.636;2023-04-01T15:49:15;3.05;;;1.32;;
56991;SDS011;42885;49.754;18.636;2023-04-01T15:57:36;1.60;;;1.10;;
56991;SDS011;42885;49.754;18.636;2023-04-01T16:00:19;2.80;;;1.30;;
56991;SDS011;42885;49.754;18.636;2023-04-01T16:35:12;2.30;;;1.12;;
56991;SDS011;42885;49.754;18.636;2023-04-01T16:40:20;2.93;;;1.37;;
56991;SDS011;42885;49.754;18.636;2023-04-01T16:43:28;2.40;;;1.57;;
56991;SDS011;42885;49.754;18.636;2023-04-01T16:48:49;4.70;;;1.70;;
56991;SDS011;42885;49.754;18.636;2023-04-01T16:51:20;3.22;;;1.90;;
56991;SDS011;42885;49.754;18.636;2023-04-01T16:54:06;3.22;;;1.45;;
56991;SDS011;42885;49.754;18.636;2023-04-01T16:57:01;3.05;;;1.62;;
56991;SDS011;42885;49.754;18.636;2023-04-01T16:59:47;3.35;;;1.90;;
56991;SDS011;42885;49.754;18.636;2023-04-01T17:02:20;4.67;;;2.00;;
56991;SDS011;42885;49.754;18.636;2023-04-01T17:04:57;4.67;;;2.25;;
56991;SDS011;42885;49.754;18.636;2023-04-01T17:07:42;6.25;;;2.45;;
56991;SDS011;42885;49.754;18.636;2023-04-01T17:13:23;6.00;;;2.67;;
56991;SDS011;42885;49.754;18.636;2023-04-01T17:22:00;5.30;;;3.37;;
56991;SDS011;42885;49.754;18.636;2023-04-01T17:24:42;8.13;;;4.72;;
56991;SDS011;42885;49.754;18.636;2023-04-01T17:32:49;11.57;;;7.17;;
56991;SDS011;42885;49.754;18.636;2023-04-01T17:35:31;7.08;;;4.67;;
56991;SDS011;42885;49.754;18.636;2023-04-01T17:49:17;9.65;;;4.65;;
56991;SDS011;42885;49.754;18.636;2023-04-01T17:54:32;12.05;;;7.78;;
56991;SDS011;42885;49.754;18.636;2023-04-01T17:57:10;9.38;;;6.37;;
56991;SDS011;42885;49.754;18.636;2023-04-01T17:59:57;8.48;;;5.53;;
56991;SDS011;42885;49.754;18.636;2023-04-01T18:05:37;7.62;;;5.15;;
56991;SDS011;42885;49.754;18.636;2023-04-01T18:08:11;11.90;;;6.40;;
56991;SDS011;42885;49.754;18.636;2023-04-01T18:16:24;8.07;;;5.67;;
56991;SDS011;42885;49.754;18.636;2023-04-01T18:24:45;8.70;;;5.03;;
56991;SDS011;42885;49.754;18.636;2023-04-01T18:27:29;10.00;;;5.62;;
56991;SDS011;42885;49.754;18.636;2023-04-01T18:30:11;7.30;;;4.67;;
56991;SDS011;42885;49.754;18.636;2023-04-01T18:33:06;8.35;;;4.15;;
56991;SDS011;42885;49.754;18.636;2023-04-01T18:35:45;6.72;;;4.55;;
56991;SDS011;42885;49.754;18.636;2023-04-01T18:38:31;7.12;;;4.58;;
56991;SDS011;42885;49.754;18.636;2023-04-01T18:44:16;9.80;;;5.50;;
56991;SDS011;42885;49.754;18.636;2023-04-01T18:49:39;7.75;;;4.78;;
56991;SDS011;42885;49.754;18.636;2023-04-01T18:52:31;6.87;;;4.75;;
56991;SDS011;42885;49.754;18.636;2023-04-01T18:57:59;9.95;;;5.08;;
56991;SDS011;42885;49.754;18.636;2023-04-01T19:00:33;6.72;;;4.78;;
56991;SDS011;42885;49.754;18.636;2023-04-01T19:05:59;14.47;;;5.90;;
56991;SDS011;42885;49.754;18.636;2023-04-01T19:08:34;9.90;;;6.05;;
56991;SDS011;42885;49.754;18.636;2023-04-01T19:22:48;9.00;;;6.00;;
56991;SDS011;42885;49.754;18.636;2023-04-01T19:34:02;12.28;;;7.65;;
56991;SDS011;42885;49.754;18.636;2023-04-01T19:42:16;9.83;;;6.20;;
56991;SDS011;42885;49.754;18.636;2023-04-01T19:52:53;6.12;;;4.03;;
56991;SDS011;42885;49.754;18.636;2023-04-01T19:58:33;7.50;;;4.50;;
56991;SDS011;42885;49.754;18.636;2023-04-01T20:01:06;8.70;;;4.70;;
56991;SDS011;42885;49.754;18.636;2023-04-01T20:03:49;7.83;;;5.45;;
56991;SDS011;42885;49.754;18.636;2023-04-01T20:12:05;5.97;;;4.17;;
56991;SDS011;42885;49.754;18.636;2023-04-01T20:14:54;6.17;;;4.05;;
56991;SDS011;42885;49.754;18.636;2023-04-01T20:34:05;8.90;;;6.15;;
56991;SDS011;42885;49.754;18.636;2023-04-01T20:39:45;10.50;;;6.42;;
56991;SDS011;42885;49.754;18.636;2023-04-01T20:42:34;9.30;;;5.95;;
56991;SDS011;42885;49.754;18.636;2023-04-01T20:50:57;10.67;;;7.10;;
56991;SDS011;42885;49.754;18.636;2023-04-01T20:53:36;11.80;;;6.93;;
56991;SDS011;42885;49.754;18.636;2023-04-01T20:56:42;16.50;;;8.50;;
56991;SDS011;42885;49.754;18.636;2023-04-01T20:59:47;31.75;;;12.90;;
56991;SDS011;42885;49.754;18.636;2023-04-01T21:02:45;55.60;;;24.23;;
56991;SDS011;42885;49.754;18.636;2023-04-01T21:05:26;89.47;;;36.55;;
56991;SDS011;42885;49.754;18.636;2023-04-01T21:13:21;90.00;;;35.38;;
56991;SDS011;42885;49.754;18.636;2023-04-01T21:16:11;79.77;;;33.30;;
56991;SDS011;42885;49.754;18.636;2023-04-01T21:21:46;85.28;;;36.35;;
56991;SDS011;42885;49.754;18.636;2023-04-01T21:24:49;69.50;;;30.23;;
56991;SDS011;42885;49.754;18.636;2023-04-01T21:27:39;69.12;;;30.92;;
56991;SDS011;42885;49.754;18.636;2023-04-01T21:36:33;67.03;;;31.23;;
56991;SDS011;42885;49.754;18.636;2023-04-01T21:39:20;82.72;;;36.45;;
56991;SDS011;42885;49.754;18.636;2023-04-01T21:41:55;68.13;;;31.63;;
56991;SDS011;42885;49.754;18.636;2023-04-01T21:44:41;70.28;;;33.13;;
56991;SDS011;42885;49.754;18.636;2023-04-01T21:53:12;30.65;;;18.48;;
56991;SDS011;42885;49.754;18.636;2023-04-01T21:58:44;33.73;;;20.20;;
56991;SDS011;42885;49.754;18.636;2023-04-01T22:13:18;42.17;;;24.18;;
56991;SDS011;42885;49.754;18.636;2023-04-01T22:15:53;48.13;;;24.80;;
56991;SDS011;42885;49.754;18.636;2023-04-01T22:18:32;50.48;;;26.37;;
56991;SDS011;42885;49.754;18.636;2023-04-01T22:21:12;45.38;;;26.12;;
56991;SDS011;42885;49.754;18.636;2023-04-01T22:23:59;50.10;;;25.95;;
56991;SDS011;42885;49.754;18.636;2023-04-01T22:26:38;47.98;;;25.55;;
56991;SDS011;42885;49.754;18.636;2023-04-01T22:29:29;45.98;;;24.57;;
56991;SDS011;42885;49.754;18.636;2023-04-01T22:32:00;41.55;;;24.37;;
56991;SDS011;42885;49.754;18.636;2023-04-01T22:34:49;38.23;;;23.95;;
56991;SDS011;42885;49.754;18.636;2023-04-01T22:43:02;41.83;;;24.43;;
56991;SDS011;42885;49.754;18.636;2023-04-01T22:45:44;45.04;;;25.28;;
56991;SDS011;42885;49.754;18.636;2023-04-01T22:56:34;56.73;;;30.77;;
56991;SDS011;42885;49.754;18.636;2023-04-01T22:59:13;57.98;;;30.05;;
56991;SDS011;42885;49.754;18.636;2023-04-01T23:01:55;51.50;;;28.55;;
56991;SDS011;42885;49.754;18.636;2023-04-01T23:04:31;45.52;;;26.05;;
56991;SDS011;42885;49.754;18.636;2023-04-01T23:07:04;52.98;;;27.70;;
56991;SDS011;42885;49.754;18.636;2023-04-01T23:09:38;46.90;;;25.35;;
56991;SDS011;42885;49.754;18.636;2023-04-01T23:12:10;49.42;;;26.62;;
56991;SDS011;42885;49.754;18.636;2023-04-01T23:14:55;46.75;;;26.07;;
56991;SDS011;42885;49.754;18.636;2023-04-01T23:22:51;43.73;;;25.25;;
56991;SDS011;42885;49.754;18.636;2023-04-01T23:25:49;46.00;;;24.77;;
56991;SDS011;42885;49.754;18.636;2023-04-01T23:28:42;40.30;;;24.75;;
56991;SDS011;42885;49.754;18.636;2023-04-01T23:36:48;40.23;;;22.83;;
56991;SDS011;42885;49.754;18.636;2023-04-01T23:42:29;43.45;;;25.15;;
56991;SDS011;42885;49.754;18.636;2023-04-01T23:45:16;40.95;;;24.20;;
56991;SDS011;42885;49.754;18.636;2023-04-01T23:47:51;41.45;;;23.52;;
56991;SDS011;42885;49.754;18.636;2023-04-01T23:50:24;38.13;;;23.93;;
56991;SDS011;42885;49.754;18.636;2023-04-01T23:55:31;38.15;;;21.80;;
56991;SDS011;42885;49.754;18.636;2023-04-01T23:58:16;27.30;;;17.17;;
